createdAt,value
2022-09-17T00:02:05.908Z,15.22
2022-09-17T00:04:34.353Z,15.13
2022-09-17T00:07:05.131Z,15.23
2022-09-17T00:09:33.396Z,15.15
2022-09-17T00:12:03.350Z,15.18
2022-09-17T00:14:32.425Z,15.17
2022-09-17T00:17:02.931Z,15.13
2022-09-17T00:19:32.139Z,14.97
2022-09-17T00:22:02.350Z,14.75
2022-09-17T00:24:32.435Z,14.45
2022-09-17T00:27:03.186Z,14.21
2022-09-17T00:29:33.350Z,14.30
2022-09-17T00:32:04.809Z,14.41
2022-09-17T00:34:38.343Z,14.49
2022-09-17T00:37:12.010Z,14.61
2022-09-17T00:39:43.497Z,14.85
2022-09-17T00:42:16.596Z,14.74
2022-09-17T00:44:51.574Z,14.78
2022-09-17T00:47:28.124Z,14.84
2022-09-17T00:50:00.523Z,14.83
2022-09-17T00:52:33.510Z,14.74
2022-09-17T00:55:11.069Z,14.82
2022-09-17T00:57:41.713Z,14.83
2022-09-17T01:00:11.163Z,14.92
2022-09-17T01:02:39.446Z,14.91
2022-09-17T01:05:09.421Z,14.96
2022-09-17T01:07:54.291Z,15.04
2022-09-17T01:10:43.934Z,15.00
2022-09-17T01:13:25.242Z,15.00
2022-09-17T01:16:10.416Z,15.00
2022-09-17T01:18:48.779Z,14.99
2022-09-17T01:21:43.757Z,15.04
2022-09-17T01:24:40.437Z,15.03
2022-09-17T01:27:43.678Z,15.01
2022-09-17T01:30:36.008Z,14.95
2022-09-17T01:33:12.911Z,14.97
2022-09-17T01:35:50.493Z,14.93
2022-09-17T01:38:28.140Z,14.75
2022-09-17T01:41:07.036Z,14.89
2022-09-17T01:43:39.308Z,14.88
2022-09-17T01:46:15.171Z,14.92
2022-09-17T01:48:50.964Z,14.89
2022-09-17T01:51:24.653Z,14.91
2022-09-17T01:53:57.933Z,14.97
2022-09-17T01:56:32.543Z,14.94
2022-09-17T01:59:07.461Z,14.99
2022-09-17T02:01:38.596Z,14.93
2022-09-17T02:04:12.485Z,14.96
2022-09-17T02:06:46.926Z,14.99
2022-09-17T02:09:19.477Z,14.86
2022-09-17T02:11:58.898Z,14.93
2022-09-17T02:14:31.065Z,14.96
2022-09-17T02:17:06.856Z,14.88
2022-09-17T02:19:39.137Z,14.92
2022-09-17T02:22:17.179Z,14.81
2022-09-17T02:24:52.077Z,14.88
2022-09-17T02:27:26.468Z,14.95
2022-09-17T02:29:54.447Z,14.81
2022-09-17T02:32:22.409Z,14.92
2022-09-17T02:34:52.107Z,14.80
2022-09-17T02:37:20.289Z,14.76
2022-09-17T02:39:48.418Z,14.75
2022-09-17T02:42:23.653Z,14.67
2022-09-17T02:45:02.023Z,14.77
2022-09-17T02:47:44.226Z,14.81
2022-09-17T02:50:35.937Z,14.64
2022-09-17T02:53:20.637Z,14.76
2022-09-17T02:55:54.888Z,14.77
2022-09-17T02:58:28.049Z,14.78
2022-09-17T03:00:58.646Z,14.83
2022-09-17T03:03:31.741Z,14.86
2022-09-17T03:06:01.606Z,14.86
2022-09-17T03:08:31.269Z,14.82
2022-09-17T03:10:59.828Z,14.86
2022-09-17T03:13:27.725Z,14.81
2022-09-17T03:15:55.715Z,14.89
2022-09-17T03:18:23.864Z,14.82
2022-09-17T03:20:51.749Z,14.84
2022-09-17T03:23:21.013Z,14.75
2022-09-17T03:25:49.576Z,14.80
2022-09-17T03:28:17.852Z,14.77
2022-09-17T03:30:46.662Z,14.79
2022-09-17T03:33:15.161Z,14.79
2022-09-17T03:35:43.980Z,14.64
2022-09-17T03:38:11.913Z,14.63
2022-09-17T03:40:41.869Z,14.57
2022-09-17T03:43:10.493Z,14.51
2022-09-17T03:45:38.331Z,14.46
2022-09-17T03:48:06.265Z,14.38
2022-09-17T03:50:36.024Z,14.24
2022-09-17T03:53:09.216Z,14.34
2022-09-17T03:55:42.798Z,14.35
2022-09-17T03:58:14.138Z,14.37
2022-09-17T04:00:44.688Z,14.41
2022-09-17T04:03:15.218Z,14.50
2022-09-17T04:05:45.816Z,14.55
2022-09-17T04:08:14.573Z,14.49
2022-09-17T04:10:47.010Z,14.52
2022-09-17T04:13:19.341Z,14.55
2022-09-17T04:15:48.927Z,14.57
2022-09-17T04:18:17.452Z,14.55
2022-09-17T04:20:47.735Z,14.48
2022-09-17T04:23:18.155Z,14.53
2022-09-17T04:25:48.179Z,14.43
2022-09-17T04:28:17.958Z,14.50
2022-09-17T04:30:49.815Z,14.48
2022-09-17T04:33:19.377Z,14.45
2022-09-17T04:35:49.750Z,14.38
2022-09-17T04:38:22.351Z,14.40
2022-09-17T04:40:51.784Z,14.38
2022-09-17T04:43:20.101Z,14.32
2022-09-17T04:45:50.057Z,14.28
2022-09-17T04:48:19.066Z,14.38
2022-09-17T04:50:48.585Z,14.45
2022-09-17T04:53:16.790Z,14.50
2022-09-17T04:55:44.742Z,14.56
2022-09-17T04:58:16.640Z,14.67
2022-09-17T05:00:46.227Z,14.67
2022-09-17T05:03:16.652Z,14.63
2022-09-17T05:05:47.120Z,14.54
2022-09-17T05:08:16.825Z,14.58
2022-09-17T05:10:45.573Z,14.54
2022-09-17T05:13:16.083Z,14.59
2022-09-17T05:15:45.682Z,14.57
2022-09-17T05:18:15.269Z,14.58
2022-09-17T05:20:46.139Z,14.63
2022-09-17T05:23:14.554Z,14.61
2022-09-17T05:25:42.567Z,14.59
2022-09-17T05:28:12.987Z,14.53
2022-09-17T05:30:45.736Z,14.51
2022-09-17T05:33:16.481Z,14.39
2022-09-17T05:35:45.360Z,14.17
2022-09-17T05:38:16.127Z,14.29
2022-09-17T05:40:45.375Z,14.31
2022-09-17T05:43:13.702Z,14.47
2022-09-17T05:45:48.150Z,14.60
2022-09-17T05:48:16.808Z,14.72
2022-09-17T05:50:44.785Z,14.73
2022-09-17T05:53:14.878Z,14.78
2022-09-17T05:55:46.269Z,14.64
2022-09-17T05:58:18.050Z,14.64
2022-09-17T06:00:51.557Z,14.49
2022-09-17T06:03:24.674Z,14.24
2022-09-17T06:05:55.469Z,13.98
2022-09-17T06:08:25.661Z,13.75
2022-09-17T06:11:00.223Z,13.60
2022-09-17T06:13:33.491Z,13.26
2022-09-17T06:16:04.964Z,13.36
2022-09-17T06:18:35.030Z,13.31
2022-09-17T06:21:05.998Z,13.31
2022-09-17T06:23:38.202Z,13.39
2022-09-17T06:26:07.754Z,13.32
2022-09-17T06:28:41.278Z,13.37
2022-09-17T06:31:15.128Z,13.39
2022-09-17T06:33:47.183Z,13.40
2022-09-17T06:36:15.914Z,13.49
2022-09-17T06:38:45.550Z,13.61
2022-09-17T06:41:17.867Z,13.53
2022-09-17T06:43:47.713Z,13.26
2022-09-17T06:46:19.509Z,13.39
2022-09-17T06:48:47.853Z,13.55
2022-09-17T06:51:16.154Z,13.51
2022-09-17T06:53:44.190Z,13.58
2022-09-17T06:56:12.339Z,13.66
2022-09-17T06:58:41.736Z,13.70
2022-09-17T07:01:12.127Z,13.79
2022-09-17T07:03:43.970Z,13.83
2022-09-17T07:06:12.730Z,13.93
2022-09-17T07:08:41.645Z,13.97
2022-09-17T07:11:09.744Z,13.99
2022-09-17T07:13:37.770Z,14.07
2022-09-17T07:16:08.004Z,14.09
2022-09-17T07:18:36.046Z,14.15
2022-09-17T07:21:07.386Z,14.17
2022-09-17T07:23:37.505Z,14.21
2022-09-17T07:26:07.741Z,14.30
2022-09-17T07:28:35.923Z,14.41
2022-09-17T07:31:05.855Z,14.45
2022-09-17T07:33:35.973Z,14.51
2022-09-17T07:36:07.753Z,14.49
2022-09-17T07:38:36.025Z,14.57
2022-09-17T07:41:06.529Z,14.55
2022-09-17T07:43:36.231Z,14.57
2022-09-17T07:46:06.529Z,14.55
2022-09-17T07:48:34.971Z,14.66
2022-09-17T07:51:07.921Z,14.71
2022-09-17T07:53:39.200Z,14.72
2022-09-17T07:56:11.838Z,14.67
2022-09-17T07:58:42.822Z,14.54
2022-09-17T08:01:16.040Z,14.40
2022-09-17T08:03:50.825Z,14.38
2022-09-17T08:06:23.236Z,14.29
2022-09-17T08:08:52.096Z,14.43
2022-09-17T08:11:55.095Z,14.50
2022-09-17T08:14:17.524Z,14.50
2022-09-17T08:16:47.848Z,14.51
2022-09-17T08:19:19.637Z,14.40
2022-09-17T08:21:51.551Z,14.37
2022-09-17T08:24:22.526Z,14.45
2022-09-17T08:26:54.108Z,14.41
2022-09-17T08:29:24.027Z,14.55
2022-09-17T08:31:54.237Z,14.59
2022-09-17T08:34:26.028Z,14.67
2022-09-17T08:36:58.651Z,14.73
2022-09-17T08:39:30.005Z,14.90
2022-09-17T08:42:12.806Z,15.01
2022-09-17T08:44:47.014Z,14.97
2022-09-17T08:47:28.618Z,15.16
2022-09-17T08:49:59.794Z,15.18
2022-09-17T08:52:55.094Z,15.06
2022-09-17T08:55:34.035Z,14.86
2022-09-17T08:58:46.737Z,14.71
2022-09-17T09:01:26.556Z,14.38
2022-09-17T09:04:21.698Z,14.48
2022-09-17T09:06:58.404Z,14.43
2022-09-17T09:09:39.459Z,14.22
2022-09-17T09:12:24.544Z,14.27
2022-09-17T09:15:00.009Z,14.33
2022-09-17T09:17:33.681Z,14.32
2022-09-17T09:20:05.991Z,14.34
2022-09-17T09:22:54.868Z,14.41
2022-09-17T09:25:31.585Z,14.46
2022-09-17T09:28:17.477Z,14.19
2022-09-17T09:31:00.731Z,13.90
2022-09-17T09:33:35.759Z,13.85
2022-09-17T09:36:08.543Z,13.72
2022-09-17T09:38:45.958Z,13.80
2022-09-17T09:41:27.477Z,13.81
2022-09-17T09:44:04.449Z,13.97
2022-09-17T09:47:00.004Z,14.19
2022-09-17T09:49:44.692Z,14.37
2022-09-17T09:52:27.312Z,14.49
2022-09-17T09:55:30.455Z,14.69
2022-09-17T09:58:21.160Z,14.70
2022-09-17T10:00:53.031Z,14.82
2022-09-17T10:03:32.535Z,14.89
2022-09-17T10:06:05.554Z,14.83
2022-09-17T10:08:39.090Z,14.78
2022-09-17T10:11:20.972Z,14.87
2022-09-17T10:13:56.936Z,14.94
2022-09-17T10:16:32.441Z,14.93
2022-09-17T10:19:17.303Z,14.50
2022-09-17T10:21:46.685Z,14.43
2022-09-17T10:24:28.355Z,14.31
2022-09-17T10:27:06.343Z,14.32
2022-09-17T10:29:42.709Z,14.19
2022-09-17T10:32:23.658Z,13.96
2022-09-17T10:35:06.385Z,14.10
2022-09-17T10:37:46.502Z,14.23
2022-09-17T10:40:39.566Z,14.46
2022-09-17T10:43:28.262Z,14.59
2022-09-17T10:46:03.464Z,14.72
2022-09-17T10:48:40.256Z,14.88
2022-09-17T10:51:11.893Z,15.01
2022-09-17T10:54:11.049Z,15.05
2022-09-17T10:56:44.455Z,15.16
2022-09-17T10:59:41.808Z,15.28
2022-09-17T11:02:42.295Z,15.34
2022-09-17T11:05:35.429Z,15.47
2022-09-17T11:08:13.204Z,15.53
2022-09-17T11:10:51.381Z,15.63
2022-09-17T11:13:31.006Z,15.61
2022-09-17T11:16:12.559Z,15.44
2022-09-17T11:18:51.852Z,15.59
2022-09-17T11:21:41.360Z,15.73
2022-09-17T11:24:58.241Z,15.74
2022-09-17T11:27:40.990Z,15.87
2022-09-17T11:30:17.884Z,16.02
2022-09-17T11:33:26.103Z,16.11
2022-09-17T11:36:01.989Z,16.27
2022-09-17T11:38:39.192Z,16.12
2022-09-17T11:41:14.651Z,16.17
2022-09-17T11:43:54.336Z,16.32
2022-09-17T11:46:27.106Z,16.36
2022-09-17T11:49:03.170Z,16.34
2022-09-17T11:51:37.489Z,16.42
2022-09-17T11:54:09.630Z,16.57
2022-09-17T11:56:45.845Z,16.69
2022-09-17T11:59:22.279Z,16.60
2022-09-17T12:02:00.226Z,16.73
2022-09-17T12:04:41.056Z,16.70
2022-09-17T12:07:25.721Z,16.69
2022-09-17T12:10:02.356Z,16.84
2022-09-17T12:12:49.829Z,16.88
2022-09-17T12:15:23.705Z,16.98
2022-09-17T12:18:30.478Z,17.03
2022-09-17T12:21:01.114Z,17.01
2022-09-17T12:23:40.143Z,16.98
2022-09-17T12:26:29.916Z,16.90
2022-09-17T12:29:06.978Z,16.87
2022-09-17T12:31:46.261Z,16.62
2022-09-17T12:34:29.203Z,16.66
2022-09-17T12:37:08.481Z,16.82
2022-09-17T12:40:12.074Z,16.95
2022-09-17T12:42:58.373Z,16.78
2022-09-17T12:45:38.718Z,16.80
2022-09-17T12:48:30.293Z,16.54
2022-09-17T12:51:12.112Z,16.28
2022-09-17T12:53:47.618Z,16.28
2022-09-17T12:56:29.607Z,16.47
2022-09-17T12:59:12.051Z,16.69
2022-09-17T13:01:49.897Z,16.70
2022-09-17T13:05:07.306Z,16.92
2022-09-17T13:08:05.150Z,16.96
2022-09-17T13:10:48.922Z,17.02
2022-09-17T13:13:39.450Z,16.92
2022-09-17T13:16:20.079Z,16.86
2022-09-17T13:19:15.497Z,16.81
2022-09-17T13:21:56.462Z,16.84
2022-09-17T13:24:31.070Z,16.82
2022-09-17T13:27:02.971Z,17.03
2022-09-17T13:30:02.326Z,17.25
2022-09-17T13:32:48.546Z,17.55
2022-09-17T13:35:50.843Z,17.62
2022-09-17T13:38:24.397Z,17.69
2022-09-17T13:41:15.919Z,17.73
2022-09-17T13:43:50.750Z,17.71
2022-09-17T13:46:29.151Z,17.64
2022-09-17T13:49:03.733Z,17.46
2022-09-17T13:52:00.751Z,17.41
2022-09-17T13:54:43.644Z,17.41
2022-09-17T13:57:18.313Z,17.53
2022-09-17T13:59:56.276Z,17.46
2022-09-17T14:02:33.088Z,17.43
2022-09-17T14:05:32.478Z,17.37
2022-09-17T14:08:41.007Z,17.41
2022-09-17T14:11:39.499Z,17.23
2022-09-17T14:14:41.752Z,16.87
2022-09-17T14:17:12.959Z,16.71
2022-09-17T14:19:51.937Z,16.53
2022-09-17T14:22:26.948Z,16.53
2022-09-17T14:24:55.912Z,16.52
2022-09-17T14:27:44.508Z,16.74
2022-09-17T14:30:19.341Z,16.89
2022-09-17T14:33:05.580Z,16.84
2022-09-17T14:35:42.762Z,16.68
2022-09-17T14:38:19.889Z,16.58
2022-09-17T14:40:54.865Z,16.27
2022-09-17T14:43:36.828Z,16.21
2022-09-17T14:46:07.861Z,16.27
2022-09-17T14:48:38.603Z,16.51
2022-09-17T14:51:31.153Z,16.69
2022-09-17T14:54:17.384Z,16.65
2022-09-17T14:56:52.578Z,16.81
2022-09-17T14:59:33.201Z,17.02
2022-09-17T15:02:03.658Z,17.05
2022-09-17T15:04:33.441Z,16.96
2022-09-17T15:07:13.690Z,17.08
2022-09-17T15:09:44.708Z,17.04
2022-09-17T15:12:20.992Z,16.68
2022-09-17T15:14:51.139Z,16.81
2022-09-17T15:17:21.600Z,16.81
2022-09-17T15:19:54.932Z,16.86
2022-09-17T15:22:28.234Z,17.01
2022-09-17T15:25:03.310Z,16.68
2022-09-17T15:27:35.972Z,16.35
2022-09-17T15:30:12.375Z,15.99
2022-09-17T15:32:50.919Z,15.75
2022-09-17T15:35:23.472Z,15.54
2022-09-17T15:40:48.465Z,15.73
2022-09-17T15:43:23.299Z,15.75
2022-09-17T15:45:53.582Z,15.84
2022-09-17T15:48:37.554Z,15.74
2022-09-17T15:51:08.080Z,15.63
2022-09-17T15:53:40.250Z,15.83
2022-09-17T15:56:17.647Z,15.67
2022-09-17T15:58:57.228Z,15.71
2022-09-17T16:01:56.987Z,15.75
2022-09-17T16:04:33.103Z,15.87
2022-09-17T16:07:20.187Z,15.87
2022-09-17T16:09:54.392Z,15.90
2022-09-17T16:12:28.202Z,15.92
2022-09-17T16:15:02.357Z,15.94
2022-09-17T16:17:37.636Z,16.00
2022-09-17T16:20:12.270Z,16.07
2022-09-17T16:22:41.339Z,16.20
2022-09-17T16:25:13.342Z,15.97
2022-09-17T16:27:49.426Z,16.00
2022-09-17T16:30:21.552Z,16.06
2022-09-17T16:32:52.469Z,16.09
2022-09-17T16:35:24.035Z,16.05
2022-09-17T16:37:57.844Z,15.93
2022-09-17T16:40:31.172Z,15.96
2022-09-17T16:43:03.641Z,15.74
2022-09-17T16:45:32.953Z,15.54
2022-09-17T16:48:02.726Z,15.62
2022-09-17T16:50:31.408Z,15.64
2022-09-17T16:53:05.534Z,15.69
2022-09-17T16:55:36.180Z,15.57
2022-09-17T16:58:05.474Z,15.59
2022-09-17T17:00:37.454Z,15.65
2022-09-17T17:03:06.886Z,15.69
2022-09-17T17:05:40.160Z,15.66
2022-09-17T17:08:12.986Z,15.53
2022-09-17T17:10:42.801Z,15.55
2022-09-17T17:13:14.001Z,15.55
2022-09-17T17:15:45.456Z,15.60
2022-09-17T17:18:16.248Z,15.49
2022-09-17T17:20:49.043Z,15.68
2022-09-17T17:23:18.925Z,15.70
2022-09-17T17:25:49.618Z,15.70
2022-09-17T17:28:17.928Z,15.67
2022-09-17T17:30:50.663Z,15.52
2022-09-17T17:33:21.575Z,15.45
2022-09-17T17:35:51.857Z,15.34
2022-09-17T17:38:24.166Z,15.44
2022-09-17T17:41:07.789Z,15.51
2022-09-17T17:43:36.666Z,15.39
2022-09-17T17:46:08.119Z,15.37
2022-09-17T17:48:36.859Z,15.39
2022-09-17T17:51:09.890Z,15.37
2022-09-17T17:53:44.047Z,15.32
2022-09-17T17:56:20.139Z,15.45
2022-09-17T17:58:56.278Z,15.45
2022-09-17T18:01:30.452Z,15.03
2022-09-17T18:04:03.321Z,15.28
2022-09-17T18:06:35.450Z,15.04
2022-09-17T18:09:08.495Z,14.96
2022-09-17T18:11:41.136Z,15.00
2022-09-17T18:14:14.386Z,14.95
2022-09-17T18:16:45.674Z,14.99
2022-09-17T18:19:16.854Z,15.00
2022-09-17T18:21:50.258Z,15.02
2022-09-17T18:24:19.894Z,15.03
2022-09-17T18:26:52.513Z,15.09
2022-09-17T18:29:24.881Z,15.22
2022-09-17T18:31:56.866Z,15.15
2022-09-17T18:34:26.501Z,15.08
2022-09-17T18:36:58.972Z,15.03
2022-09-17T18:39:57.860Z,15.05
2022-09-17T18:42:20.865Z,14.95
2022-09-17T18:44:50.294Z,14.91
2022-09-17T18:47:19.082Z,14.79
2022-09-17T18:49:50.161Z,14.88
2022-09-17T18:52:19.077Z,14.88
2022-09-17T18:54:51.014Z,14.94
2022-09-17T18:57:23.822Z,14.93
2022-09-17T18:59:52.128Z,14.98
2022-09-17T19:02:20.227Z,15.04
2022-09-17T19:04:48.255Z,15.07
2022-09-17T19:07:16.484Z,15.05
2022-09-17T19:09:45.038Z,15.04
2022-09-17T19:12:13.144Z,15.09
2022-09-17T19:14:42.540Z,15.12
2022-09-17T19:17:10.593Z,15.10
2022-09-17T19:19:38.590Z,15.13
2022-09-17T19:22:08.177Z,15.17
2022-09-17T19:24:36.665Z,15.19
2022-09-17T19:27:05.355Z,15.02
2022-09-17T19:29:34.514Z,15.17
2022-09-17T19:32:05.125Z,15.14
2022-09-17T19:34:33.696Z,15.24
2022-09-17T19:37:02.479Z,15.01
2022-09-17T19:39:30.407Z,15.12
2022-09-17T19:41:58.767Z,15.08
2022-09-17T19:44:27.065Z,15.16
2022-09-17T19:46:55.477Z,15.14
2022-09-17T19:49:25.061Z,15.19
2022-09-17T19:51:52.976Z,15.13
2022-09-17T19:54:21.057Z,15.06
2022-09-17T19:56:49.669Z,15.05
2022-09-17T19:59:18.062Z,14.94
2022-09-17T20:01:49.630Z,14.81
2022-09-17T20:04:20.817Z,14.73
2022-09-17T20:06:53.370Z,14.75
2022-09-17T20:09:24.680Z,14.70
2022-09-17T20:11:55.494Z,14.79
2022-09-17T20:14:23.888Z,14.69
2022-09-17T20:16:51.894Z,14.69
2022-09-17T20:19:21.632Z,14.69
2022-09-17T20:21:54.075Z,14.65
2022-09-17T20:24:24.660Z,14.70
2022-09-17T20:26:54.709Z,14.58
2022-09-17T20:29:24.857Z,14.66
2022-09-17T20:31:54.547Z,14.73
2022-09-17T20:34:23.725Z,14.76
2022-09-17T20:37:06.709Z,14.87
2022-09-17T20:39:42.006Z,14.95
2022-09-17T20:42:11.796Z,14.82
2022-09-17T20:44:40.832Z,14.78
2022-09-17T20:47:10.712Z,14.72
2022-09-17T20:49:40.677Z,14.63
2022-09-17T20:52:10.351Z,14.51
2022-09-17T20:54:38.831Z,14.46
2022-09-17T20:57:06.823Z,14.47
2022-09-17T20:59:51.209Z,14.52
2022-09-17T21:02:21.055Z,14.61
2022-09-17T21:04:51.182Z,14.56
2022-09-17T21:07:20.653Z,14.55
2022-09-17T21:09:48.954Z,14.52
2022-09-17T21:12:16.975Z,14.60
2022-09-17T21:14:44.969Z,14.57
2022-09-17T21:17:13.171Z,14.61
2022-09-17T21:19:41.123Z,14.65
2022-09-17T21:22:09.094Z,14.76
2022-09-17T21:24:38.706Z,14.80
2022-09-17T21:27:07.342Z,14.81
2022-09-17T21:29:35.709Z,14.86
2022-09-17T21:32:04.346Z,14.92
2022-09-17T21:34:33.047Z,14.96
2022-09-17T21:37:04.248Z,14.95
2022-09-17T21:39:34.940Z,14.98
2022-09-17T21:42:05.532Z,14.98
2022-09-17T21:44:34.194Z,14.95
2022-09-17T21:47:02.173Z,15.00
2022-09-17T21:49:30.526Z,14.97
2022-09-17T21:51:58.467Z,14.94
2022-09-17T21:54:29.041Z,14.80
2022-09-17T21:57:01.044Z,14.84
2022-09-17T21:59:31.377Z,14.83
2022-09-17T22:02:00.385Z,14.89
2022-09-17T22:04:29.825Z,14.87
2022-09-17T22:06:59.202Z,14.98
2022-09-17T22:09:30.752Z,15.00
2022-09-17T22:12:02.524Z,15.07
2022-09-17T22:14:34.987Z,15.00
2022-09-17T22:17:05.236Z,15.03
2022-09-17T22:19:36.841Z,15.08
2022-09-17T22:22:05.859Z,15.04
2022-09-17T22:24:39.491Z,15.02
2022-09-17T22:27:07.972Z,15.07
2022-09-17T22:29:39.833Z,15.07
2022-09-17T22:32:08.599Z,15.09
2022-09-17T22:34:37.040Z,14.94
2022-09-17T22:37:06.417Z,14.94
2022-09-17T22:39:35.840Z,14.97
2022-09-17T22:42:06.004Z,14.88
2022-09-17T22:44:36.950Z,14.88
2022-09-17T22:47:12.969Z,14.96
2022-09-17T22:49:46.997Z,14.86
2022-09-17T22:52:15.675Z,14.85
2022-09-17T22:54:44.999Z,14.79
2022-09-17T22:57:15.765Z,14.74
2022-09-17T22:59:44.674Z,14.79
2022-09-17T23:02:15.213Z,14.80
2022-09-17T23:04:44.476Z,14.69
2022-09-17T23:07:16.301Z,14.65
2022-09-17T23:09:45.691Z,14.64
2022-09-17T23:12:14.628Z,14.61
2022-09-17T23:14:47.152Z,14.57
2022-09-17T23:17:17.488Z,14.62
2022-09-17T23:19:47.311Z,14.17
2022-09-17T23:22:15.948Z,14.09
2022-09-17T23:24:45.072Z,14.10
2022-09-17T23:27:14.791Z,14.06
2022-09-17T23:29:43.418Z,14.15
2022-09-17T23:32:11.938Z,14.17
2022-09-17T23:34:42.898Z,14.18
2022-09-17T23:37:12.456Z,14.18
2022-09-17T23:39:42.524Z,14.33
2022-09-17T23:42:11.871Z,14.35
2022-09-17T23:44:40.920Z,14.28
2022-09-17T23:47:09.940Z,14.29
2022-09-17T23:49:38.709Z,14.29
2022-09-17T23:52:09.665Z,14.23
2022-09-17T23:54:39.356Z,14.19
2022-09-17T23:57:08.468Z,14.19
2022-09-17T23:59:37.691Z,14.16
